METAR Data
IDs: Format: Raw Decoded Include TAF

Data at: 1716 UTC 24 Aug 2019

PAHL 241656Z AUTO 31003KT 10SM CLR 05/01 A2980 RMK AO2 SLP103 T00500011
PAHL 241556Z AUTO 30003KT 10SM CLR 03/01 A2979 RMK AO2 SLP099 T00280006
PAHL 241456Z AUTO 32004KT 10SM CLR 02/00 A2979 RMK AO2 SLP098 T00170000 53013 FZRANO
PAHL 241356Z AUTO 29004KT 10SM CLR 01/M01 A2978 RMK AO2 SLP094 T00111006 FZRANO
PAHL 241256Z AUTO 29004KT 10SM CLR 02/00 A2976 RMK AO2 SLP089 T00170000 FZRANO
PAHL 241156Z AUTO 28003KT 10SM CLR 03/01 A2975 RMK AO2 SLP086 T00280006 10106 20028 53013
PAHL 241056Z AUTO 28004KT 10SM CLR 03/00 A2974 RMK AO2 SLP080 T00330000
PAHL 240956Z AUTO 28003KT 10SM CLR 04/01 A2973 RMK AO2 SLP076 T00440006
PAHL 240856Z AUTO 28004KT 10SM CLR 06/01 A2971 RMK AO2 SLP073 T00560011 401560039 53015
PAHL 240756Z AUTO 28003KT 10SM CLR 07/02 A2970 RMK AO2 SLP067 T00670022
PAHL 240656Z AUTO 30004KT 10SM CLR 09/02 A2968 RMK AO2 SLP061 T00890022
PAHL 240556Z AUTO 30004KT 10SM CLR 11/02 A2967 RMK AO2 SLP058 T01060022 10156 20106 51010
PAHL 240456Z AUTO 31003KT 10SM CLR 12/02 A2966 RMK AO2 SLP055 T01220017
PAHL 240356Z AUTO 34004KT 10SM CLR 13/01 A2965 RMK AO2 SLP052 T01330011
PAHL 240256Z AUTO 28007KT 10SM BKN049 16/03 A2964 RMK AO2 SLP047 T01560028 55001
PAHL 240156Z AUTO 30005KT 10SM BKN049 15/03 A2964 RMK AO2 SLP047 T01500028
PAHL 240056Z AUTO 30006KT 10SM OVC049 14/04 A2964 RMK AO2 SLP049 T01390039
PAHL 232356Z AUTO 32008KT 10SM OVC049 14/03 A2964 RMK AO2 SLP049 T01440033 10150 20083 52004
PAHL 232256Z AUTO VRB05KT 10SM SCT044 14/03 A2964 RMK AO2 SLP046 T01440033
PAHL 232156Z AUTO VRB05KT 10SM SCT040 13/03 A2964 RMK AO2 SLP047 T01330033
PAHL 232056Z AUTO 31008KT 10SM CLR 13/03 A2963 RMK AO2 SLP044 T01330033 51001
PAHL 231956Z AUTO VRB05KT 10SM CLR 12/04 A2963 RMK AO2 SLP045 T01170039
PAHL 231856Z AUTO 30006KT 10SM CLR 11/03 A2963 RMK AO2 SLP044 T01060033
PAHL 231756Z AUTO VRB06KT 10SM CLR 08/03 A2963 RMK AO2 SLP043 T00830028 10083 20039 55000
PAHL 231656Z AUTO 28005KT 10SM FEW075 07/03 A2963 RMK AO2 SLP043 T00720033
PAHL 231556Z AUTO 28003KT 10SM CLR 05/02 A2963 RMK AO2 SLP043 T00500022
PAHL 231456Z AUTO 28004KT 10SM FEW120 04/02 A2963 RMK AO2 SLP044 T00390017 53002
PAHL 231356Z AUTO 29006KT 10SM CLR 04/02 A2963 RMK AO2 SLP042 T00440017
PAHL 231256Z AUTO 28004KT 10SM CLR 04/02 A2962 RMK AO2 SLP042 T00440022
PAHL 231156Z AUTO 28005KT 10SM CLR 06/03 A2962 RMK AO2 SLP041 T00560033 10111 20056 57001
PAHL 231056Z AUTO 25005KT 10SM CLR 06/03 A2962 RMK AO2 SLP041 T00610033
PAHL 230956Z AUTO 27004KT 10SM CLR 07/03 A2962 RMK AO2 SLP042 T00670028
PAHL 230856Z AUTO 29005KT 10SM CLR 08/03 A2962 RMK AO2 SLP042 T00780028 401670056 53001
PAHL 230756Z AUTO 00000KT 6SM HZ CLR 08/03 A2962 RMK AO2 SLP042 T00830033
PAHL 230656Z AUTO 30004KT 10SM CLR 09/03 A2962 RMK AO2 SLP041 T00940028
PAHL 230556Z AUTO 30005KT 10SM FEW120 11/03 A2962 RMK AO2 SLP041 T01110028 10167 20111 56004